sensor_id;sensor_type;location;lat;lon;timestamp;pressure;altitude;pressure_sealevel;temperature;humidity
11682;BME280;5897;42.640;23.310;2023-04-27T00:01:31;93617.13;;;8.20;60.53
11682;BME280;5897;42.640;23.310;2023-04-27T00:03:57;93611.75;;;8.20;59.97
11682;BME280;5897;42.640;23.310;2023-04-27T00:06:24;93611.41;;;8.18;60.73
11682;BME280;5897;42.640;23.310;2023-04-27T00:08:53;93619.81;;;8.20;60.51
11682;BME280;5897;42.640;23.310;2023-04-27T00:11:19;93611.19;;;8.09;59.65
11682;BME280;5897;42.640;23.310;2023-04-27T00:13:46;93611.13;;;8.13;60.30
11682;BME280;5897;42.640;23.310;2023-04-27T00:16:13;93619.00;;;8.04;60.06
11682;BME280;5897;42.640;23.310;2023-04-27T00:18:40;93623.63;;;8.03;59.98
11682;BME280;5897;42.640;23.310;2023-04-27T00:21:07;93626.81;;;7.98;60.93
11682;BME280;5897;42.640;23.310;2023-04-27T00:23:34;93612.81;;;7.87;60.51
11682;BME280;5897;42.640;23.310;2023-04-27T00:26:02;93638.25;;;8.02;60.53
11682;BME280;5897;42.640;23.310;2023-04-27T00:28:29;93623.09;;;7.92;60.18
11682;BME280;5897;42.640;23.310;2023-04-27T00:30:56;93623.63;;;8.03;60.50
11682;BME280;5897;42.640;23.310;2023-04-27T00:33:23;93625.78;;;7.92;60.27
11682;BME280;5897;42.640;23.310;2023-04-27T00:35:49;93585.38;;;7.60;60.52
11682;BME280;5897;42.640;23.310;2023-04-27T00:38:16;93617.06;;;7.88;60.66
11682;BME280;5897;42.640;23.310;2023-04-27T00:40:43;93626.69;;;7.86;60.70
11682;BME280;5897;42.640;23.310;2023-04-27T00:43:11;93606.03;;;7.63;60.86
11682;BME280;5897;42.640;23.310;2023-04-27T00:45:40;93620.94;;;7.68;61.29
11682;BME280;5897;42.640;23.310;2023-04-27T00:48:08;93624.84;;;7.63;61.23
11682;BME280;5897;42.640;23.310;2023-04-27T00:50:35;93626.88;;;7.59;61.62
11682;BME280;5897;42.640;23.310;2023-04-27T00:53:04;93628.09;;;7.55;61.55
11682;BME280;5897;42.640;23.310;2023-04-27T00:55:31;93624.09;;;7.43;61.51
11682;BME280;5897;42.640;23.310;2023-04-27T00:57:58;93607.69;;;7.38;61.47
11682;BME280;5897;42.640;23.310;2023-04-27T01:00:26;93633.94;;;7.50;60.88
11682;BME280;5897;42.640;23.310;2023-04-27T01:02:54;93602.53;;;7.27;61.52
11682;BME280;5897;42.640;23.310;2023-04-27T01:05:21;93641.75;;;7.44;61.16
11682;BME280;5897;42.640;23.310;2023-04-27T01:07:48;93636.44;;;7.41;61.13
11682;BME280;5897;42.640;23.310;2023-04-27T01:10:15;93630.56;;;7.26;61.77
11682;BME280;5897;42.640;23.310;2023-04-27T01:12:42;93635.66;;;7.40;60.76
11682;BME280;5897;42.640;23.310;2023-04-27T01:15:10;93611.59;;;7.14;60.92
11682;BME280;5897;42.640;23.310;2023-04-27T01:17:38;93635.88;;;7.30;60.69
11682;BME280;5897;42.640;23.310;2023-04-27T01:20:06;93639.94;;;7.38;60.93
11682;BME280;5897;42.640;23.310;2023-04-27T01:22:35;93622.97;;;7.21;61.13
11682;BME280;5897;42.640;23.310;2023-04-27T01:25:04;93649.44;;;7.23;61.61
11682;BME280;5897;42.640;23.310;2023-04-27T01:27:32;93655.09;;;7.28;60.80
11682;BME280;5897;42.640;23.310;2023-04-27T01:29:59;93649.78;;;7.25;60.66
11682;BME280;5897;42.640;23.310;2023-04-27T01:32:26;93647.97;;;7.18;60.78
11682;BME280;5897;42.640;23.310;2023-04-27T01:34:53;93649.53;;;7.16;61.25
11682;BME280;5897;42.640;23.310;2023-04-27T01:37:19;93646.25;;;7.08;60.87
11682;BME280;5897;42.640;23.310;2023-04-27T01:39:46;93648.16;;;7.08;61.04
11682;BME280;5897;42.640;23.310;2023-04-27T01:42:14;93655.13;;;7.05;60.99
11682;BME280;5897;42.640;23.310;2023-04-27T01:44:41;93656.34;;;7.01;61.54
11682;BME280;5897;42.640;23.310;2023-04-27T01:47:08;93656.63;;;7.06;61.15
11682;BME280;5897;42.640;23.310;2023-04-27T01:49:35;93657.09;;;7.01;61.30
11682;BME280;5897;42.640;23.310;2023-04-27T01:52:02;93660.22;;;7.00;61.35
11682;BME280;5897;42.640;23.310;2023-04-27T01:54:29;93657.00;;;7.08;61.12
11682;BME280;5897;42.640;23.310;2023-04-27T01:56:55;93650.06;;;7.07;61.25
11682;BME280;5897;42.640;23.310;2023-04-27T01:59:24;93648.94;;;7.08;60.70
11682;BME280;5897;42.640;23.310;2023-04-27T02:01:51;93650.06;;;7.07;61.07
11682;BME280;5897;42.640;23.310;2023-04-27T02:04:18;93648.50;;;7.10;60.53
11682;BME280;5897;42.640;23.310;2023-04-27T02:06:45;93647.00;;;7.09;60.87
11682;BME280;5897;42.640;23.310;2023-04-27T02:09:12;93652.66;;;7.14;60.35
11682;BME280;5897;42.640;23.310;2023-04-27T02:11:39;93641.69;;;7.05;60.58
11682;BME280;5897;42.640;23.310;2023-04-27T02:14:05;93657.78;;;7.05;60.40
11682;BME280;5897;42.640;23.310;2023-04-27T02:16:34;93641.81;;;6.98;60.50
11682;BME280;5897;42.640;23.310;2023-04-27T02:19:01;93651.63;;;7.08;59.86
11682;BME280;5897;42.640;23.310;2023-04-27T02:21:28;93655.81;;;7.09;59.56
11682;BME280;5897;42.640;23.310;2023-04-27T02:23:55;93641.03;;;6.98;60.06
11682;BME280;5897;42.640;23.310;2023-04-27T02:26:22;93653.28;;;6.99;59.91
11682;BME280;5897;42.640;23.310;2023-04-27T02:28:54;93650.00;;;7.11;59.54
11682;BME280;5897;42.640;23.310;2023-04-27T02:31:21;93646.25;;;7.08;60.04
11682;BME280;5897;42.640;23.310;2023-04-27T02:33:49;93651.97;;;7.10;60.00
11682;BME280;5897;42.640;23.310;2023-04-27T02:36:16;93655.56;;;7.00;60.54
11682;BME280;5897;42.640;23.310;2023-04-27T02:38:43;93655.44;;;7.07;59.91
11682;BME280;5897;42.640;23.310;2023-04-27T02:41:10;93659.44;;;6.99;59.71
11682;BME280;5897;42.640;23.310;2023-04-27T02:43:37;93657.88;;;7.02;59.61
11682;BME280;5897;42.640;23.310;2023-04-27T02:46:04;93656.81;;;6.96;59.42
11682;BME280;5897;42.640;23.310;2023-04-27T02:48:31;93666.09;;;6.91;60.77
11682;BME280;5897;42.640;23.310;2023-04-27T02:51:02;93658.25;;;7.00;59.76
11682;BME280;5897;42.640;23.310;2023-04-27T02:53:29;93642.81;;;6.85;59.49
11682;BME280;5897;42.640;23.310;2023-04-27T02:55:55;93667.31;;;6.87;59.92
11682;BME280;5897;42.640;23.310;2023-04-27T02:58:22;93665.97;;;6.98;59.51
11682;BME280;5897;42.640;23.310;2023-04-27T03:00:53;93665.66;;;6.93;59.46
11682;BME280;5897;42.640;23.310;2023-04-27T03:03:19;93666.91;;;6.88;59.95
11682;BME280;5897;42.640;23.310;2023-04-27T03:05:46;93668.34;;;6.93;59.77
11682;BME280;5897;42.640;23.310;2023-04-27T03:08:15;93680.78;;;7.06;59.15
11682;BME280;5897;42.640;23.310;2023-04-27T03:10:41;93683.84;;;7.08;59.63
11682;BME280;5897;42.640;23.310;2023-04-27T03:13:08;93686.28;;;6.99;59.18
11682;BME280;5897;42.640;23.310;2023-04-27T03:15:35;93652.44;;;6.82;59.59
11682;BME280;5897;42.640;23.310;2023-04-27T03:18:02;93683.19;;;7.01;59.61
11682;BME280;5897;42.640;23.310;2023-04-27T03:20:29;93678.63;;;6.98;60.25
11682;BME280;5897;42.640;23.310;2023-04-27T03:22:56;93686.47;;;7.12;59.31
11682;BME280;5897;42.640;23.310;2023-04-27T03:25:24;93682.31;;;7.07;59.33
11682;BME280;5897;42.640;23.310;2023-04-27T03:27:51;93672.69;;;6.87;59.55
11682;BME280;5897;42.640;23.310;2023-04-27T03:30:18;93689.56;;;6.87;60.05
11682;BME280;5897;42.640;23.310;2023-04-27T03:32:45;93691.00;;;6.92;60.29
11682;BME280;5897;42.640;23.310;2023-04-27T03:35:12;93690.09;;;7.02;59.85
11682;BME280;5897;42.640;23.310;2023-04-27T03:37:39;93693.28;;;6.93;58.84
11682;BME280;5897;42.640;23.310;2023-04-27T03:40:07;93688.66;;;6.94;58.93
11682;BME280;5897;42.640;23.310;2023-04-27T03:42:35;93698.41;;;6.84;59.20
11682;BME280;5897;42.640;23.310;2023-04-27T03:45:02;93691.19;;;6.81;59.05
11682;BME280;5897;42.640;23.310;2023-04-27T03:47:30;93700.19;;;6.94;58.67
11682;BME280;5897;42.640;23.310;2023-04-27T03:49:56;93703.31;;;6.89;59.43
11682;BME280;5897;42.640;23.310;2023-04-27T03:52:23;93706.25;;;6.98;62.06
11682;BME280;5897;42.640;23.310;2023-04-27T03:54:50;93712.81;;;6.97;59.26
11682;BME280;5897;42.640;23.310;2023-04-27T03:57:17;93703.25;;;6.93;58.80
11682;BME280;5897;42.640;23.310;2023-04-27T03:59:45;93710.13;;;6.97;58.26
11682;BME280;5897;42.640;23.310;2023-04-27T04:02:12;93712.44;;;6.95;58.35
11682;BME280;5897;42.640;23.310;2023-04-27T04:04:39;93725.34;;;7.04;58.04
11682;BME280;5897;42.640;23.310;2023-04-27T04:07:06;93725.00;;;7.02;58.72
11682;BME280;5897;42.640;23.310;2023-04-27T04:09:33;93725.34;;;7.04;58.99
11682;BME280;5897;42.640;23.310;2023-04-27T04:12:00;93728.03;;;7.04;58.54
11682;BME280;5897;42.640;23.310;2023-04-27T04:14:28;93714.66;;;7.00;59.10
11682;BME280;5897;42.640;23.310;2023-04-27T04:16:56;93733.25;;;7.14;58.43
11682;BME280;5897;42.640;23.310;2023-04-27T04:19:23;93726.31;;;7.17;57.87
11682;BME280;5897;42.640;23.310;2023-04-27T04:21:50;93741.81;;;7.06;58.39
11682;BME280;5897;42.640;23.310;2023-04-27T04:24:17;93740.47;;;7.17;57.81
11682;BME280;5897;42.640;23.310;2023-04-27T04:26:43;93747.03;;;7.16;57.78
11682;BME280;5897;42.640;23.310;2023-04-27T04:29:11;93743.16;;;7.17;57.22
11682;BME280;5897;42.640;23.310;2023-04-27T04:31:38;93755.88;;;7.13;57.91
11682;BME280;5897;42.640;23.310;2023-04-27T04:34:06;93751.69;;;7.12;57.08
11682;BME280;5897;42.640;23.310;2023-04-27T04:36:34;93752.13;;;7.07;57.20
11682;BME280;5897;42.640;23.310;2023-04-27T04:39:02;93756.06;;;7.03;57.31
11682;BME280;5897;42.640;23.310;2023-04-27T04:41:29;93758.34;;;7.04;57.21
11682;BME280;5897;42.640;23.310;2023-04-27T04:43:56;93755.19;;;7.09;57.16
11682;BME280;5897;42.640;23.310;2023-04-27T04:46:23;93763.06;;;7.20;57.74
11682;BME280;5897;42.640;23.310;2023-04-27T04:48:50;93766.41;;;7.27;56.90
11682;BME280;5897;42.640;23.310;2023-04-27T04:51:19;93765.63;;;7.27;56.58
11682;BME280;5897;42.640;23.310;2023-04-27T04:53:46;93770.88;;;7.37;55.88
11682;BME280;5897;42.640;23.310;2023-04-27T04:56:13;93781.94;;;7.39;56.29
11682;BME280;5897;42.640;23.310;2023-04-27T04:58:41;93779.97;;;7.43;56.44
11682;BME280;5897;42.640;23.310;2023-04-27T05:01:08;93773.25;;;7.32;56.29
11682;BME280;5897;42.640;23.310;2023-04-27T05:03:35;93764.31;;;7.38;55.75
11682;BME280;5897;42.640;23.310;2023-04-27T05:06:01;93787.66;;;7.64;55.64
11682;BME280;5897;42.640;23.310;2023-04-27T05:08:30;93793.81;;;7.65;55.94
11682;BME280;5897;42.640;23.310;2023-04-27T05:10:57;93793.81;;;7.65;55.47
11682;BME280;5897;42.640;23.310;2023-04-27T05:13:23;93791.88;;;7.65;55.87
11682;BME280;5897;42.640;23.310;2023-04-27T05:15:51;93780.66;;;7.47;57.63
11682;BME280;5897;42.640;23.310;2023-04-27T05:18:18;93803.09;;;7.60;56.79
11682;BME280;5897;42.640;23.310;2023-04-27T05:20:45;93803.78;;;7.64;55.40
11682;BME280;5897;42.640;23.310;2023-04-27T05:23:12;93795.25;;;7.46;55.81
11682;BME280;5897;42.640;23.310;2023-04-27T05:25:40;93804.91;;;7.44;56.33
11682;BME280;5897;42.640;23.310;2023-04-27T05:28:07;93807.44;;;7.54;56.57
11682;BME280;5897;42.640;23.310;2023-04-27T05:30:34;93783.72;;;7.49;58.51
11682;BME280;5897;42.640;23.310;2023-04-27T05:33:01;93811.84;;;7.64;57.54
11682;BME280;5897;42.640;23.310;2023-04-27T05:35:28;93810.91;;;7.74;57.67
11682;BME280;5897;42.640;23.310;2023-04-27T05:37:55;93810.03;;;7.81;55.83
11682;BME280;5897;42.640;23.310;2023-04-27T05:40:22;93814.91;;;7.66;57.93
11682;BME280;5897;42.640;23.310;2023-04-27T05:42:50;93813.47;;;7.81;58.18
11682;BME280;5897;42.640;23.310;2023-04-27T05:45:17;93810.44;;;7.79;57.10
11682;BME280;5897;42.640;23.310;2023-04-27T05:47:44;93817.75;;;7.79;56.89
11682;BME280;5897;42.640;23.310;2023-04-27T05:50:11;93791.38;;;7.70;56.07
11682;BME280;5897;42.640;23.310;2023-04-27T05:52:37;93816.22;;;7.78;57.15
11682;BME280;5897;42.640;23.310;2023-04-27T05:55:06;93815.34;;;7.84;57.68
11682;BME280;5897;42.640;23.310;2023-04-27T05:57:35;93820.41;;;7.82;56.64
11682;BME280;5897;42.640;23.310;2023-04-27T06:00:05;93826.53;;;7.83;56.90
11682;BME280;5897;42.640;23.310;2023-04-27T06:02:35;93815.19;;;7.72;56.31
11682;BME280;5897;42.640;23.310;2023-04-27T06:05:01;93816.16;;;7.81;56.06
11682;BME280;5897;42.640;23.310;2023-04-27T06:07:29;93820.03;;;7.80;56.32
11682;BME280;5897;42.640;23.310;2023-04-27T06:09:56;93819.28;;;7.80;56.69
11682;BME280;5897;42.640;23.310;2023-04-27T06:12:22;93821.72;;;7.94;56.38
11682;BME280;5897;42.640;23.310;2023-04-27T06:14:49;93814.41;;;7.94;56.68
11682;BME280;5897;42.640;23.310;2023-04-27T06:17:17;93823.09;;;8.02;56.43
11682;BME280;5897;42.640;23.310;2023-04-27T06:19:44;93822.97;;;7.89;56.69
11682;BME280;5897;42.640;23.310;2023-04-27T06:22:11;93825.91;;;7.95;57.52
11682;BME280;5897;42.640;23.310;2023-04-27T06:24:38;93819.31;;;7.99;56.80
11682;BME280;5897;42.640;23.310;2023-04-27T06:27:04;93813.00;;;7.86;57.88
11682;BME280;5897;42.640;23.310;2023-04-27T06:29:31;93817.38;;;8.00;57.16
11682;BME280;5897;42.640;23.310;2023-04-27T06:31:58;93818.00;;;8.07;57.36
11682;BME280;5897;42.640;23.310;2023-04-27T06:34:27;93808.53;;;8.22;58.98
11682;BME280;5897;42.640;23.310;2023-04-27T06:36:53;93810.94;;;8.36;56.90
11682;BME280;5897;42.640;23.310;2023-04-27T06:39:20;93804.47;;;8.34;57.85
11682;BME280;5897;42.640;23.310;2023-04-27T06:41:47;93813.09;;;8.45;56.27
11682;BME280;5897;42.640;23.310;2023-04-27T06:44:14;93815.00;;;8.44;56.13
11682;BME280;5897;42.640;23.310;2023-04-27T06:46:41;93806.81;;;8.51;56.06
11682;BME280;5897;42.640;23.310;2023-04-27T06:49:07;93819.16;;;8.68;55.87
11682;BME280;5897;42.640;23.310;2023-04-27T06:51:35;93823.38;;;8.50;56.22
11682;BME280;5897;42.640;23.310;2023-04-27T06:54:02;93819.34;;;8.58;55.52
11682;BME280;5897;42.640;23.310;2023-04-27T06:56:30;93813.97;;;8.58;54.99
11682;BME280;5897;42.640;23.310;2023-04-27T06:58:57;93809.19;;;8.65;55.14
11682;BME280;5897;42.640;23.310;2023-04-27T07:01:23;93813.63;;;8.75;55.63
11682;BME280;5897;42.640;23.310;2023-04-27T07:03:50;93809.38;;;8.94;55.73
11682;BME280;5897;42.640;23.310;2023-04-27T07:06:17;93805.34;;;9.02;55.13
11682;BME280;5897;42.640;23.310;2023-04-27T07:08:45;93808.06;;;9.18;55.67
11682;BME280;5897;42.640;23.310;2023-04-27T07:11:12;93811.50;;;9.34;55.51
11682;BME280;5897;42.640;23.310;2023-04-27T07:13:40;93807.31;;;9.49;55.14
11682;BME280;5897;42.640;23.310;2023-04-27T07:16:07;93812.03;;;9.61;52.72
11682;BME280;5897;42.640;23.310;2023-04-27T07:18:34;93820.13;;;9.61;53.50
11682;BME280;5897;42.640;23.310;2023-04-27T07:21:01;93802.16;;;9.55;52.91
11682;BME280;5897;42.640;23.310;2023-04-27T07:23:27;93809.25;;;9.65;52.15
11682;BME280;5897;42.640;23.310;2023-04-27T07:25:56;93809.91;;;9.69;52.54
11682;BME280;5897;42.640;23.310;2023-04-27T07:28:23;93809.75;;;9.60;52.69
11682;BME280;5897;42.640;23.310;2023-04-27T07:30:50;93803.84;;;9.81;51.62
11682;BME280;5897;42.640;23.310;2023-04-27T07:33:17;93811.66;;;10.07;50.91
11682;BME280;5897;42.640;23.310;2023-04-27T07:35:43;93816.13;;;9.98;49.85
11682;BME280;5897;42.640;23.310;2023-04-27T07:38:10;93792.44;;;9.89;50.93
11682;BME280;5897;42.640;23.310;2023-04-27T07:40:37;93794.28;;;9.92;50.32
11682;BME280;5897;42.640;23.310;2023-04-27T07:43:06;93806.75;;;10.02;50.11
11682;BME280;5897;42.640;23.310;2023-04-27T07:45:33;93794.53;;;10.14;50.38
11682;BME280;5897;42.640;23.310;2023-04-27T07:48:03;93803.28;;;10.46;51.16
11682;BME280;5897;42.640;23.310;2023-04-27T07:50:30;93797.47;;;10.60;48.92
11682;BME280;5897;42.640;23.310;2023-04-27T07:52:57;93797.38;;;10.64;49.03
11682;BME280;5897;42.640;23.310;2023-04-27T07:55:25;93798.78;;;10.68;49.28
11682;BME280;5897;42.640;23.310;2023-04-27T07:57:53;93798.47;;;10.79;49.25
11682;BME280;5897;42.640;23.310;2023-04-27T08:00:22;93799.78;;;10.74;48.36
11682;BME280;5897;42.640;23.310;2023-04-27T08:02:51;93792.22;;;10.94;48.46
11682;BME280;5897;42.640;23.310;2023-04-27T08:05:18;93794.63;;;11.05;47.28
11682;BME280;5897;42.640;23.310;2023-04-27T08:07:45;93804.44;;;11.11;47.11
11682;BME280;5897;42.640;23.310;2023-04-27T08:10:13;93789.88;;;11.21;47.89
11682;BME280;5897;42.640;23.310;2023-04-27T08:12:40;93793.63;;;11.11;47.11
11682;BME280;5897;42.640;23.310;2023-04-27T08:15:08;93805.34;;;11.08;46.54
11682;BME280;5897;42.640;23.310;2023-04-27T08:17:37;93802.63;;;11.08;45.22
11682;BME280;5897;42.640;23.310;2023-04-27T08:20:06;93808.59;;;11.16;46.35
11682;BME280;5897;42.640;23.310;2023-04-27T08:22:34;93805.09;;;11.15;46.43
11682;BME280;5897;42.640;23.310;2023-04-27T08:25:01;93800.78;;;11.05;45.00
11682;BME280;5897;42.640;23.310;2023-04-27T08:27:29;93809.41;;;11.00;45.79
11682;BME280;5897;42.640;23.310;2023-04-27T08:29:55;93805.56;;;11.01;47.24
11682;BME280;5897;42.640;23.310;2023-04-27T08:32:23;93795.59;;;11.23;46.17
11682;BME280;5897;42.640;23.310;2023-04-27T08:34:51;93802.06;;;11.26;45.88
11682;BME280;5897;42.640;23.310;2023-04-27T08:37:18;93800.34;;;11.44;44.93
11682;BME280;5897;42.640;23.310;2023-04-27T08:39:46;93796.03;;;11.22;44.58
11682;BME280;5897;42.640;23.310;2023-04-27T08:42:13;93794.41;;;11.24;45.54
11682;BME280;5897;42.640;23.310;2023-04-27T08:44:41;93798.84;;;11.31;46.06
11682;BME280;5897;42.640;23.310;2023-04-27T08:47:08;93795.78;;;11.53;47.04
11682;BME280;5897;42.640;23.310;2023-04-27T08:49:35;93805.19;;;11.74;45.22
11682;BME280;5897;42.640;23.310;2023-04-27T08:52:11;93800.84;;;11.89;44.34
11682;BME280;5897;42.640;23.310;2023-04-27T08:54:38;93797.06;;;11.87;44.36
11682;BME280;5897;42.640;23.310;2023-04-27T08:57:10;93790.53;;;11.97;44.22
11682;BME280;5897;42.640;23.310;2023-04-27T08:59:37;93793.28;;;12.18;44.02
11682;BME280;5897;42.640;23.310;2023-04-27T09:02:04;93801.28;;;12.21;44.65
11682;BME280;5897;42.640;23.310;2023-04-27T09:04:37;93798.16;;;12.44;42.51
11682;BME280;5897;42.640;23.310;2023-04-27T09:07:13;93802.88;;;12.53;42.99
11682;BME280;5897;42.640;23.310;2023-04-27T09:09:40;93799.69;;;12.45;41.22
11682;BME280;5897;42.640;23.310;2023-04-27T09:12:14;93782.16;;;12.37;41.66
11682;BME280;5897;42.640;23.310;2023-04-27T09:14:42;93800.00;;;12.47;40.45
11682;BME280;5897;42.640;23.310;2023-04-27T09:17:09;93777.59;;;12.13;41.11
11682;BME280;5897;42.640;23.310;2023-04-27T09:19:35;93784.84;;;12.37;43.08
11682;BME280;5897;42.640;23.310;2023-04-27T09:22:07;93796.63;;;12.65;42.61
11682;BME280;5897;42.640;23.310;2023-04-27T09:24:36;93765.69;;;12.75;41.69
11682;BME280;5897;42.640;23.310;2023-04-27T09:27:05;93779.19;;;13.18;40.33
11682;BME280;5897;42.640;23.310;2023-04-27T09:29:34;93777.78;;;13.44;39.61
11682;BME280;5897;42.640;23.310;2023-04-27T09:32:01;93779.03;;;13.52;39.58
11682;BME280;5897;42.640;23.310;2023-04-27T09:34:46;93779.16;;;13.48;38.82
11682;BME280;5897;42.640;23.310;2023-04-27T09:37:13;93767.28;;;13.73;37.95
11682;BME280;5897;42.640;23.310;2023-04-27T09:39:42;93756.94;;;13.98;36.11
11682;BME280;5897;42.640;23.310;2023-04-27T09:42:10;93769.75;;;13.98;36.97
11682;BME280;5897;42.640;23.310;2023-04-27T09:44:37;93767.53;;;14.41;36.44
11682;BME280;5897;42.640;23.310;2023-04-27T09:47:05;93765.22;;;14.13;37.04
11682;BME280;5897;42.640;23.310;2023-04-27T09:49:33;93763.09;;;13.81;38.29
11682;BME280;5897;42.640;23.310;2023-04-27T09:52:00;93763.34;;;13.56;38.20
11682;BME280;5897;42.640;23.310;2023-04-27T09:54:29;93758.28;;;13.85;37.02
11682;BME280;5897;42.640;23.310;2023-04-27T09:57:07;93755.91;;;14.14;36.81
11682;BME280;5897;42.640;23.310;2023-04-27T09:59:54;93760.91;;;14.51;35.60
11682;BME280;5897;42.640;23.310;2023-04-27T10:02:26;93753.59;;;14.66;33.23
11682;BME280;5897;42.640;23.310;2023-04-27T10:05:20;93747.56;;;14.80;33.80
11682;BME280;5897;42.640;23.310;2023-04-27T10:07:51;93753.41;;;14.97;34.09
11682;BME280;5897;42.640;23.310;2023-04-27T10:10:18;93747.16;;;15.14;34.08
11682;BME280;5897;42.640;23.310;2023-04-27T10:12:56;93743.50;;;15.59;33.76
11682;BME280;5897;42.640;23.310;2023-04-27T10:15:27;93744.19;;;15.45;34.70
11682;BME280;5897;42.640;23.310;2023-04-27T10:17:54;93748.72;;;14.97;32.59
11682;BME280;5897;42.640;23.310;2023-04-27T10:20:29;93739.56;;;14.68;35.13
11682;BME280;5897;42.640;23.310;2023-04-27T10:22:57;93734.28;;;14.73;35.26
11682;BME280;5897;42.640;23.310;2023-04-27T10:25:25;93744.09;;;14.62;34.78
11682;BME280;5897;42.640;23.310;2023-04-27T10:27:54;93745.03;;;14.59;34.75
11682;BME280;5897;42.640;23.310;2023-04-27T10:30:24;93744.91;;;15.04;35.66
11682;BME280;5897;42.640;23.310;2023-04-27T10:32:52;93734.94;;;15.75;31.89
11682;BME280;5897;42.640;23.310;2023-04-27T10:35:20;93724.81;;;15.75;30.11
11682;BME280;5897;42.640;23.310;2023-04-27T10:37:47;93743.53;;;15.82;30.04
11682;BME280;5897;42.640;23.310;2023-04-27T10:40:14;93739.16;;;15.99;32.57
11682;BME280;5897;42.640;23.310;2023-04-27T10:42:43;93732.78;;;16.02;31.03
11682;BME280;5897;42.640;23.310;2023-04-27T10:45:11;93731.56;;;15.56;31.46
11682;BME280;5897;42.640;23.310;2023-04-27T10:47:41;93743.22;;;15.57;32.12
11682;BME280;5897;42.640;23.310;2023-04-27T10:50:09;93733.84;;;15.81;32.03
11682;BME280;5897;42.640;23.310;2023-04-27T10:52:39;93725.63;;;15.67;32.36
11682;BME280;5897;42.640;23.310;2023-04-27T10:55:14;93734.19;;;15.42;32.62
11682;BME280;5897;42.640;23.310;2023-04-27T10:57:48;93733.47;;;14.91;33.38
11682;BME280;5897;42.640;23.310;2023-04-27T11:00:21;93734.44;;;15.53;33.77
11682;BME280;5897;42.640;23.310;2023-04-27T11:02:51;93710.41;;;15.98;33.57
11682;BME280;5897;42.640;23.310;2023-04-27T11:05:19;93716.94;;;16.82;31.70
11682;BME280;5897;42.640;23.310;2023-04-27T11:07:47;93724.75;;;17.18;30.45
11682;BME280;5897;42.640;23.310;2023-04-27T11:10:16;93718.00;;;16.85;29.74
11682;BME280;5897;42.640;23.310;2023-04-27T11:12:43;93724.59;;;16.78;30.13
11682;BME280;5897;42.640;23.310;2023-04-27T11:15:10;93717.88;;;16.12;30.37
11682;BME280;5897;42.640;23.310;2023-04-27T11:17:38;93729.25;;;15.31;32.91
11682;BME280;5897;42.640;23.310;2023-04-27T11:20:08;93727.88;;;15.92;31.64
11682;BME280;5897;42.640;23.310;2023-04-27T11:22:43;93730.97;;;16.37;29.27
11682;BME280;5897;42.640;23.310;2023-04-27T11:25:10;93730.72;;;16.12;30.86
11682;BME280;5897;42.640;23.310;2023-04-27T11:27:38;93740.06;;;15.49;31.50
11682;BME280;5897;42.640;23.310;2023-04-27T11:30:16;93731.75;;;15.76;31.74
11682;BME280;5897;42.640;23.310;2023-04-27T11:32:44;93746.69;;;15.81;31.67
11682;BME280;5897;42.640;23.310;2023-04-27T11:35:12;93730.69;;;16.21;32.37
11682;BME280;5897;42.640;23.310;2023-04-27T11:37:40;93723.63;;;16.67;30.38
11682;BME280;5897;42.640;23.310;2023-04-27T11:40:08;93731.13;;;16.43;31.35
11682;BME280;5897;42.640;23.310;2023-04-27T11:42:35;93727.81;;;16.01;31.97
11682;BME280;5897;42.640;23.310;2023-04-27T11:45:04;93740.22;;;15.78;33.23
11682;BME280;5897;42.640;23.310;2023-04-27T11:47:32;93735.59;;;15.37;33.38
11682;BME280;5897;42.640;23.310;2023-04-27T11:50:01;93748.84;;;15.03;34.34
11682;BME280;5897;42.640;23.310;2023-04-27T11:52:31;93743.13;;;15.42;34.46
11682;BME280;5897;42.640;23.310;2023-04-27T11:54:59;93749.00;;;15.73;32.88
11682;BME280;5897;42.640;23.310;2023-04-27T11:57:27;93743.41;;;15.44;32.70
11682;BME280;5897;42.640;23.310;2023-04-27T11:59:56;93750.16;;;15.58;33.53
11682;BME280;5897;42.640;23.310;2023-04-27T12:02:23;93740.25;;;15.46;32.37
11682;BME280;5897;42.640;23.310;2023-04-27T12:04:50;93743.91;;;15.66;32.89
11682;BME280;5897;42.640;23.310;2023-04-27T12:07:17;93744.88;;;15.78;30.56
11682;BME280;5897;42.640;23.310;2023-04-27T12:09:45;93734.59;;;15.58;31.66
11682;BME280;5897;42.640;23.310;2023-04-27T12:12:12;93749.94;;;15.38;32.34
11682;BME280;5897;42.640;23.310;2023-04-27T12:14:41;93748.50;;;15.19;32.70
11682;BME280;5897;42.640;23.310;2023-04-27T12:17:08;93754.56;;;15.14;33.56
11682;BME280;5897;42.640;23.310;2023-04-27T12:19:34;93758.13;;;15.29;34.05
11682;BME280;5897;42.640;23.310;2023-04-27T12:22:02;93757.88;;;15.18;33.77
11682;BME280;5897;42.640;23.310;2023-04-27T12:24:29;93751.25;;;15.10;34.08
11682;BME280;5897;42.640;23.310;2023-04-27T12:26:57;93766.09;;;15.00;35.09
11682;BME280;5897;42.640;23.310;2023-04-27T12:29:25;93757.50;;;14.92;33.92
11682;BME280;5897;42.640;23.310;2023-04-27T12:31:52;93766.59;;;14.71;33.85
11682;BME280;5897;42.640;23.310;2023-04-27T12:34:19;93763.91;;;14.53;34.23
11682;BME280;5897;42.640;23.310;2023-04-27T12:36:46;93753.81;;;14.36;34.71
11682;BME280;5897;42.640;23.310;2023-04-27T12:39:14;93765.41;;;14.54;33.51
11682;BME280;5897;42.640;23.310;2023-04-27T12:41:42;93759.19;;;13.91;34.13
11682;BME280;5897;42.640;23.310;2023-04-27T12:44:11;93766.88;;;13.92;35.65
11682;BME280;5897;42.640;23.310;2023-04-27T12:46:38;93754.34;;;13.77;35.15
11682;BME280;5897;42.640;23.310;2023-04-27T12:49:05;93761.22;;;13.51;35.30
11682;BME280;5897;42.640;23.310;2023-04-27T12:51:32;93769.63;;;13.35;36.56
11682;BME280;5897;42.640;23.310;2023-04-27T12:53:59;93758.03;;;13.04;36.29
11682;BME280;5897;42.640;23.310;2023-04-27T12:56:26;93771.38;;;13.20;37.47
11682;BME280;5897;42.640;23.310;2023-04-27T12:58:53;93765.78;;;13.14;36.20
11682;BME280;5897;42.640;23.310;2023-04-27T13:01:21;93764.38;;;13.10;37.02
11682;BME280;5897;42.640;23.310;2023-04-27T13:03:50;93762.69;;;13.34;37.78
11682;BME280;5897;42.640;23.310;2023-04-27T13:06:18;93770.81;;;13.34;36.24
11682;BME280;5897;42.640;23.310;2023-04-27T13:08:45;93773.88;;;13.45;37.72
11682;BME280;5897;42.640;23.310;2023-04-27T13:11:11;93758.84;;;13.71;37.77